createdAt,value
2023-03-03T00:03:24.684Z,99951.03
2023-03-03T00:05:58.514Z,99954.94
2023-03-03T00:08:34.573Z,99957.03
2023-03-03T00:11:03.377Z,99964.56
2023-03-03T00:13:32.819Z,99955.94
2023-03-03T00:16:16.446Z,99958.03
2023-03-03T00:18:47.979Z,99963.03
2023-03-03T00:21:49.270Z,99959.13
2023-03-03T00:24:23.469Z,99960.50
2023-03-03T00:26:52.168Z,99962.91
2023-03-03T00:29:28.028Z,99967.50
2023-03-03T00:31:55.199Z,99967.50
2023-03-03T00:34:27.141Z,99973.47
2023-03-03T00:36:59.377Z,99970.41
2023-03-03T00:39:36.760Z,99964.72
2023-03-03T00:42:13.578Z,99965.81
2023-03-03T00:44:48.670Z,99971.38
2023-03-03T00:47:37.000Z,99969.84
2023-03-03T00:50:06.936Z,99974.16
2023-03-03T00:52:39.517Z,99965.38
2023-03-03T00:55:07.899Z,99969.44
2023-03-03T00:57:34.912Z,99987.53
2023-03-03T01:00:01.590Z,99991.44
2023-03-03T01:02:28.339Z,99991.41
2023-03-03T01:04:57.944Z,99982.78
2023-03-03T01:07:25.825Z,99982.59
2023-03-03T01:09:52.996Z,99986.34
2023-03-03T01:12:19.760Z,99982.59
2023-03-03T01:14:46.617Z,99985.66
2023-03-03T01:17:13.340Z,99986.34
2023-03-03T01:19:40.027Z,99982.16
2023-03-03T01:22:07.080Z,99979.38
2023-03-03T01:24:33.783Z,99977.38
2023-03-03T01:27:00.540Z,99985.47
2023-03-03T01:29:27.263Z,99987.56
2023-03-03T01:31:54.044Z,99984.94
2023-03-03T01:34:20.889Z,99987.13
2023-03-03T01:36:47.765Z,99982.94
2023-03-03T01:39:15.154Z,99981.56
2023-03-03T01:41:41.971Z,99973.47
2023-03-03T01:44:14.401Z,99971.47
2023-03-03T01:46:52.628Z,99971.97
2023-03-03T01:49:43.108Z,99966.88
2023-03-03T01:52:38.217Z,99960.75
2023-03-03T01:55:11.625Z,99962.44
2023-03-03T01:57:43.341Z,99953.66
2023-03-03T02:00:11.440Z,99955.19
2023-03-03T02:02:39.667Z,99957.63
2023-03-03T02:05:11.353Z,99947.91
2023-03-03T02:07:38.728Z,99951.84
2023-03-03T02:10:07.706Z,99959.38
2023-03-03T02:12:40.512Z,99957.25
2023-03-03T02:15:19.072Z,99955.31
2023-03-03T02:17:48.558Z,99955.84
2023-03-03T02:20:37.170Z,99962.22
2023-03-03T02:23:15.941Z,99958.34
2023-03-03T02:25:52.240Z,99953.72
2023-03-03T02:28:19.061Z,99954.91
2023-03-03T02:30:46.652Z,99961.88
2023-03-03T02:33:13.611Z,99955.81
2023-03-03T02:35:41.942Z,99960.50
2023-03-03T02:38:20.746Z,99964.78
2023-03-03T02:40:52.481Z,99959.94
2023-03-03T02:43:22.904Z,99958.41
2023-03-03T02:48:16.583Z,99958.16
2023-03-03T02:50:43.291Z,99964.41
2023-03-03T02:53:10.039Z,99946.41
2023-03-03T02:55:36.824Z,99955.38
2023-03-03T02:58:04.422Z,99953.19
2023-03-03T03:00:32.561Z,99952.28
2023-03-03T03:02:59.349Z,99953.50
2023-03-03T03:05:26.089Z,99950.59
2023-03-03T03:07:52.871Z,99963.66
2023-03-03T03:10:20.019Z,99960.47
2023-03-03T03:12:46.856Z,99972.22
2023-03-03T03:15:13.709Z,99973.16
2023-03-03T03:17:40.382Z,99973.44
2023-03-03T03:20:07.443Z,99965.59
2023-03-03T03:22:34.621Z,99970.53
2023-03-03T03:25:02.021Z,99974.28
2023-03-03T03:27:28.701Z,99972.38
2023-03-03T03:29:55.425Z,99977.13
2023-03-03T03:32:22.372Z,99972.72
2023-03-03T03:34:49.287Z,99977.59
2023-03-03T03:37:15.938Z,99982.63
2023-03-03T03:39:42.818Z,99975.44
2023-03-03T03:42:10.068Z,99975.69
2023-03-03T03:44:36.752Z,99972.13
2023-03-03T03:47:03.734Z,99969.97
2023-03-03T03:49:30.615Z,99966.84
2023-03-03T03:51:57.765Z,99979.09
2023-03-03T03:54:24.935Z,99982.97
2023-03-03T03:56:52.602Z,99977.97
2023-03-03T03:59:20.192Z,99976.41
2023-03-03T04:01:48.321Z,99978.38
2023-03-03T04:04:16.454Z,99984.00
2023-03-03T04:06:43.219Z,99980.56
2023-03-03T04:09:09.955Z,99984.38
2023-03-03T04:11:39.188Z,99980.91
2023-03-03T04:14:09.214Z,99983.53
2023-03-03T04:16:36.027Z,99973.94
2023-03-03T04:19:02.734Z,99984.00
2023-03-03T04:21:30.535Z,99988.94
2023-03-03T04:23:57.303Z,99980.91
2023-03-03T04:26:24.108Z,99975.28
2023-03-03T04:31:17.314Z,99986.88
2023-03-03T04:33:44.194Z,99982.56
2023-03-03T04:36:11.012Z,99991.00
2023-03-03T04:38:37.722Z,99991.50
2023-03-03T04:41:04.581Z,99995.78
2023-03-03T04:43:32.205Z,99992.22
2023-03-03T04:45:59.000Z,99995.78
2023-03-03T04:48:25.809Z,99992.34
2023-03-03T04:50:52.493Z,99998.56
2023-03-03T04:53:19.189Z,100005.47
2023-03-03T04:55:46.079Z,100001.38
2023-03-03T04:58:13.193Z,100007.50
2023-03-03T05:00:40.246Z,100008.81
2023-03-03T05:03:07.585Z,100004.00
2023-03-03T05:05:34.422Z,100009.06
2023-03-03T05:08:01.088Z,100008.34
2023-03-03T05:10:27.928Z,100013.63
2023-03-03T05:12:54.689Z,100015.69
2023-03-03T05:15:21.456Z,100011.38
2023-03-03T05:17:48.166Z,100016.78
2023-03-03T05:20:15.538Z,100011.84
2023-03-03T05:22:42.225Z,100006.31
2023-03-03T05:25:10.807Z,100010.03
2023-03-03T05:27:37.466Z,100012.56
2023-03-03T05:30:05.141Z,100011.25
2023-03-03T05:32:32.492Z,100018.78
2023-03-03T05:34:59.204Z,100012.91
2023-03-03T05:37:25.967Z,100011.25
2023-03-03T05:39:52.675Z,100011.50
2023-03-03T05:42:20.121Z,100023.72
2023-03-03T05:44:46.977Z,100022.09
2023-03-03T05:47:13.806Z,100019.41
2023-03-03T05:49:40.854Z,100022.03
2023-03-03T05:52:09.211Z,100032.25
2023-03-03T05:54:36.044Z,100031.41
2023-03-03T05:57:03.416Z,100033.94
2023-03-03T05:59:30.389Z,100034.75
2023-03-03T06:01:57.343Z,100030.34
2023-03-03T06:04:24.220Z,100039.22
2023-03-03T06:09:20.347Z,100032.63
2023-03-03T06:11:47.171Z,100044.25
2023-03-03T06:14:13.968Z,100046.03
2023-03-03T06:16:40.824Z,100049.16
2023-03-03T06:19:07.905Z,100049.28
2023-03-03T06:21:34.566Z,100047.97
2023-03-03T06:24:01.628Z,100047.47
2023-03-03T06:26:28.489Z,100049.16
2023-03-03T06:28:56.023Z,100059.97
2023-03-03T06:31:23.703Z,100056.59
2023-03-03T06:33:52.309Z,100065.50
2023-03-03T06:36:19.850Z,100067.41
2023-03-03T06:38:47.208Z,100074.06
2023-03-03T06:41:13.969Z,100070.97
2023-03-03T06:43:40.753Z,100075.63
2023-03-03T06:46:07.507Z,100087.28
2023-03-03T06:48:34.312Z,100084.88
2023-03-03T06:51:03.316Z,100082.47
2023-03-03T06:53:33.368Z,100094.22
2023-03-03T06:56:02.053Z,100095.63
2023-03-03T06:58:30.255Z,100091.53
2023-03-03T07:01:01.811Z,100094.88
2023-03-03T07:03:34.630Z,100100.34
2023-03-03T07:06:03.543Z,100110.06
2023-03-03T07:08:32.619Z,100112.59
2023-03-03T07:11:08.333Z,100105.97
2023-03-03T07:13:46.728Z,100105.13
2023-03-03T07:16:15.942Z,100118.72
2023-03-03T07:18:52.364Z,100118.81
2023-03-03T07:21:31.021Z,100119.91
2023-03-03T07:24:00.567Z,100126.19
2023-03-03T07:26:34.919Z,100139.88
2023-03-03T07:29:28.372Z,100142.72
2023-03-03T07:31:58.336Z,100140.53
2023-03-03T07:34:42.998Z,100140.00
2023-03-03T07:37:20.497Z,100142.13
2023-03-03T07:42:33.895Z,100148.78
2023-03-03T07:45:01.976Z,100144.75
2023-03-03T07:47:36.191Z,100150.50
2023-03-03T07:50:31.220Z,100160.41
2023-03-03T07:53:01.821Z,100160.06
2023-03-03T07:55:28.466Z,100169.28
2023-03-03T07:58:00.013Z,100171.94
2023-03-03T08:00:26.785Z,100172.72
2023-03-03T08:03:21.074Z,100175.38
2023-03-03T08:05:49.783Z,100168.72
2023-03-03T08:08:45.338Z,100172.84
2023-03-03T08:11:12.092Z,100177.47
2023-03-03T08:13:42.215Z,100186.41
2023-03-03T08:16:12.526Z,100178.00
2023-03-03T08:21:28.227Z,100171.47
2023-03-03T08:23:55.770Z,100175.19
2023-03-03T08:26:23.561Z,100175.06
2023-03-03T08:31:27.975Z,100181.88
2023-03-03T08:34:04.774Z,100175.06
2023-03-03T08:36:33.673Z,100166.88
2023-03-03T08:39:01.608Z,100160.97
2023-03-03T08:41:28.364Z,100168.72
2023-03-03T08:43:55.315Z,100173.97
2023-03-03T08:46:23.458Z,100163.09
2023-03-03T08:51:17.119Z,100169.94
2023-03-03T08:53:43.977Z,100168.44
2023-03-03T08:56:10.728Z,100164.00
2023-03-03T08:58:37.867Z,100168.72
2023-03-03T09:01:05.258Z,100175.56
2023-03-03T09:03:32.100Z,100174.75
2023-03-03T09:05:59.512Z,100172.75
2023-03-03T09:08:26.162Z,100174.44
2023-03-03T09:10:52.881Z,100174.72
2023-03-03T09:13:20.659Z,100180.91
2023-03-03T09:15:49.214Z,100185.31
2023-03-03T09:18:26.626Z,100190.81
2023-03-03T09:20:54.428Z,100189.56
2023-03-03T09:23:23.940Z,100186.72
2023-03-03T09:25:52.398Z,100188.97
2023-03-03T09:28:30.953Z,100180.63
2023-03-03T09:31:03.363Z,100186.66
2023-03-03T09:33:45.427Z,100182.69
2023-03-03T09:36:35.657Z,100188.19
2023-03-03T09:39:23.724Z,100189.91
2023-03-03T09:41:51.666Z,100187.03
2023-03-03T09:44:27.287Z,100191.50
2023-03-03T09:47:12.229Z,100179.00
2023-03-03T09:52:52.410Z,100182.19
2023-03-03T09:55:52.789Z,100173.34
2023-03-03T09:58:27.620Z,100186.41
2023-03-03T10:01:00.346Z,100185.19
2023-03-03T10:03:46.984Z,100178.97
2023-03-03T10:06:29.302Z,100174.03
2023-03-03T10:09:06.867Z,100184.41
2023-03-03T10:11:45.418Z,100183.09
2023-03-03T10:14:21.151Z,100181.22
2023-03-03T10:16:52.505Z,100185.53
2023-03-03T10:19:38.046Z,100185.78
2023-03-03T10:22:24.347Z,100179.78
2023-03-03T10:24:52.767Z,100182.28
2023-03-03T10:27:44.244Z,100182.16
2023-03-03T10:30:40.851Z,100184.84
2023-03-03T10:33:52.741Z,100186.84
2023-03-03T10:36:35.462Z,100187.94
2023-03-03T10:39:36.656Z,100193.31
2023-03-03T10:42:24.913Z,100187.56
2023-03-03T10:44:52.487Z,100197.59
2023-03-03T10:47:40.795Z,100193.16
2023-03-03T10:50:32.482Z,100195.41
2023-03-03T10:53:08.233Z,100197.66
2023-03-03T10:55:52.606Z,100187.88
2023-03-03T10:58:52.583Z,100185.00
2023-03-03T11:01:52.439Z,100197.06
2023-03-03T11:04:38.107Z,100190.69
2023-03-03T11:07:18.026Z,100188.47
2023-03-03T11:09:52.516Z,100187.97
2023-03-03T11:12:22.867Z,100181.69
2023-03-03T11:14:52.628Z,100176.84
2023-03-03T11:20:37.876Z,100172.56
2023-03-03T11:23:22.647Z,100173.75
2023-03-03T11:25:53.374Z,100166.59
2023-03-03T11:28:52.441Z,100169.59
2023-03-03T11:31:34.563Z,100155.44
2023-03-03T11:34:12.768Z,100161.28
2023-03-03T11:36:52.675Z,100160.81
2023-03-03T11:39:28.196Z,100154.25
2023-03-03T11:42:11.004Z,100147.50
2023-03-03T11:47:31.397Z,100142.66
2023-03-03T11:50:09.200Z,100139.38
2023-03-03T11:52:51.603Z,100132.47
2023-03-03T11:55:25.105Z,100122.97
2023-03-03T11:57:57.601Z,100131.44
2023-03-03T12:00:52.552Z,100120.59
2023-03-03T12:03:32.395Z,100121.41
2023-03-03T12:06:29.436Z,100111.47
2023-03-03T12:09:08.015Z,100114.53
2023-03-03T12:11:54.151Z,100109.72
2023-03-03T12:14:42.143Z,100106.41
2023-03-03T12:17:31.278Z,100092.03
2023-03-03T12:20:15.275Z,100087.16
2023-03-03T12:23:05.790Z,100093.91
2023-03-03T12:25:38.812Z,100078.56
2023-03-03T12:28:32.327Z,100072.88
2023-03-03T12:31:22.998Z,100069.28
2023-03-03T12:33:52.512Z,100063.97
2023-03-03T12:36:37.660Z,100060.66
2023-03-03T12:39:34.795Z,100056.84
2023-03-03T12:42:20.649Z,100057.63
2023-03-03T12:44:53.054Z,100053.34
2023-03-03T12:47:30.345Z,100047.44
2023-03-03T12:50:18.405Z,100047.63
2023-03-03T12:52:56.919Z,100052.50
2023-03-03T12:55:52.579Z,100055.13
2023-03-03T12:58:26.675Z,100044.69
2023-03-03T13:01:17.902Z,100046.53
2023-03-03T13:03:56.131Z,100030.97
2023-03-03T13:06:31.155Z,100031.91
2023-03-03T13:09:35.198Z,100029.50
2023-03-03T13:12:40.280Z,100036.63
2023-03-03T13:15:16.095Z,100036.47
2023-03-03T13:17:52.712Z,100020.75
2023-03-03T13:20:47.323Z,100021.31
2023-03-03T13:23:32.309Z,100014.63
2023-03-03T13:26:06.193Z,100028.84
2023-03-03T13:28:52.665Z,100023.47
2023-03-03T13:31:22.615Z,100018.03
2023-03-03T13:33:55.227Z,100021.41
2023-03-03T13:39:26.148Z,100015.00
2023-03-03T13:42:19.927Z,100007.50
2023-03-03T13:50:38.419Z,100010.31
2023-03-03T13:53:18.182Z,100007.59
2023-03-03T13:55:51.681Z,100002.69
2023-03-03T13:58:45.149Z,100006.09
2023-03-03T14:01:19.007Z,100001.03
2023-03-03T14:03:52.732Z,100006.25
2023-03-03T14:06:23.491Z,99993.19
2023-03-03T14:08:52.747Z,99994.09
2023-03-03T14:11:52.633Z,99991.13
2023-03-03T14:14:35.902Z,99996.06
2023-03-03T14:17:09.716Z,99989.69
2023-03-03T14:19:52.815Z,99986.31
2023-03-03T14:22:30.396Z,99979.63
2023-03-03T14:25:07.948Z,99985.09
2023-03-03T14:27:49.105Z,99981.44
2023-03-03T14:30:25.028Z,99983.34
2023-03-03T14:32:52.651Z,99978.72
2023-03-03T14:35:21.448Z,99979.94
2023-03-03T14:40:22.449Z,99977.00
2023-03-03T14:42:52.634Z,99980.44
2023-03-03T14:45:31.480Z,99982.25
2023-03-03T14:47:59.828Z,99980.94
2023-03-03T14:50:38.907Z,99980.47
2023-03-03T14:53:12.833Z,99976.75
2023-03-03T14:55:42.723Z,99976.41
2023-03-03T14:58:26.354Z,99969.91
2023-03-03T15:01:16.778Z,99971.25
2023-03-03T15:03:52.748Z,99978.09
2023-03-03T15:06:44.765Z,99970.34
2023-03-03T15:09:38.444Z,99969.63
2023-03-03T15:12:36.642Z,99972.31
2023-03-03T15:15:06.215Z,99968.66
2023-03-03T15:17:52.622Z,99976.28
2023-03-03T15:20:46.213Z,99972.06
2023-03-03T15:23:48.134Z,99972.22
2023-03-03T15:26:33.446Z,99971.59
2023-03-03T15:29:25.101Z,99974.34
2023-03-03T15:31:51.999Z,99974.22
2023-03-03T15:34:33.685Z,99965.63
2023-03-03T15:37:24.769Z,99966.41
2023-03-03T15:39:51.767Z,99967.66
2023-03-03T15:42:35.894Z,99963.06
2023-03-03T15:45:08.864Z,99965.59
2023-03-03T15:47:38.716Z,99964.56
2023-03-03T15:50:36.489Z,99968.09
2023-03-03T15:53:15.051Z,99967.09
2023-03-03T15:55:52.745Z,99965.34
2023-03-03T15:58:19.452Z,99966.75
2023-03-03T16:00:52.710Z,99972.63
2023-03-03T16:03:36.555Z,99967.84
2023-03-03T16:06:13.226Z,99974.50
2023-03-03T16:08:52.789Z,99971.00
2023-03-03T16:11:28.897Z,99971.91
2023-03-03T16:14:22.463Z,99967.53
2023-03-03T16:16:52.938Z,99983.50
2023-03-03T16:19:38.012Z,99970.81
2023-03-03T16:22:41.271Z,99972.47
2023-03-03T16:25:23.418Z,99981.22
2023-03-03T16:27:56.329Z,99978.63
2023-03-03T16:30:32.938Z,99970.53
2023-03-03T16:33:18.402Z,99979.63
2023-03-03T16:38:37.544Z,99987.75
2023-03-03T16:41:12.957Z,99989.31
2023-03-03T16:43:48.789Z,99994.22
2023-03-03T16:46:29.954Z,99994.94
2023-03-03T16:49:27.542Z,99995.50
2023-03-03T16:52:12.619Z,100005.63
2023-03-03T16:57:23.818Z,100018.41
2023-03-03T16:59:51.672Z,100026.94
2023-03-03T17:02:48.596Z,100027.94
2023-03-03T17:05:53.181Z,100025.28
2023-03-03T17:08:36.246Z,100030.16
2023-03-03T17:11:09.734Z,100034.88
2023-03-03T17:13:52.690Z,100034.94
2023-03-03T17:16:22.107Z,100033.75
2023-03-03T17:18:51.758Z,100044.16
2023-03-03T17:21:52.986Z,100043.69
2023-03-03T17:24:48.770Z,100052.03
2023-03-03T17:27:25.109Z,100052.16
2023-03-03T17:29:56.975Z,100058.22
2023-03-03T17:32:49.839Z,100056.31
2023-03-03T17:35:19.397Z,100065.59
2023-03-03T17:37:52.670Z,100065.88
2023-03-03T17:40:37.390Z,100069.56
2023-03-03T17:43:12.498Z,100080.31
2023-03-03T17:45:43.400Z,100078.59
2023-03-03T17:51:52.971Z,100089.72
2023-03-03T17:54:49.199Z,100101.06
2023-03-03T17:57:25.028Z,100099.75
2023-03-03T17:59:53.266Z,100106.81
2023-03-03T18:02:25.961Z,100111.19
2023-03-03T18:05:16.211Z,100116.88
2023-03-03T18:07:52.787Z,100114.16
2023-03-03T18:10:52.678Z,100118.53
2023-03-03T18:13:39.616Z,100123.03
2023-03-03T18:16:12.696Z,100127.88
2023-03-03T18:18:39.654Z,100118.22
2023-03-03T18:21:14.769Z,100123.06
2023-03-03T18:23:44.159Z,100124.72
2023-03-03T18:26:34.689Z,100127.56
2023-03-03T18:29:21.738Z,100128.25
2023-03-03T18:31:51.822Z,100134.59
2023-03-03T18:34:21.566Z,100138.09
2023-03-03T18:36:53.024Z,100136.38
2023-03-03T18:39:45.862Z,100139.88
2023-03-03T18:42:15.985Z,100140.84
2023-03-03T18:44:48.112Z,100140.13
2023-03-03T18:47:17.334Z,100141.44
2023-03-03T18:49:54.137Z,100142.38
2023-03-03T18:52:27.569Z,100139.34
2023-03-03T18:55:12.221Z,100147.91
2023-03-03T18:57:39.780Z,100151.69
2023-03-03T19:00:22.340Z,100156.97
2023-03-03T19:02:53.040Z,100162.44
2023-03-03T19:05:50.224Z,100162.25
2023-03-03T19:08:25.161Z,100170.91
2023-03-03T19:10:52.717Z,100164.28
2023-03-03T19:13:35.002Z,100167.03
2023-03-03T19:16:07.061Z,100165.66
2023-03-03T19:18:48.073Z,100168.03
2023-03-03T19:21:43.244Z,100176.09
2023-03-03T19:24:34.140Z,100177.75
2023-03-03T19:27:00.988Z,100182.69
2023-03-03T19:29:46.399Z,100182.13
2023-03-03T19:32:31.176Z,100181.06
2023-03-03T19:35:26.100Z,100173.00
2023-03-03T19:38:19.366Z,100184.72
2023-03-03T19:40:51.863Z,100189.38
2023-03-03T19:43:27.516Z,100189.25
2023-03-03T19:46:31.112Z,100194.75
2023-03-03T19:49:35.682Z,100192.38
2023-03-03T19:52:19.012Z,100187.28
2023-03-03T19:57:34.956Z,100191.22
2023-03-03T20:00:16.512Z,100197.97
2023-03-03T20:02:56.452Z,100202.75
2023-03-03T20:05:52.734Z,100206.81
2023-03-03T20:08:25.534Z,100210.34
2023-03-03T20:11:17.815Z,100206.38
2023-03-03T20:13:53.050Z,100221.38
2023-03-03T20:16:28.981Z,100212.13
2023-03-03T20:19:26.423Z,100218.44
2023-03-03T20:22:22.178Z,100224.72
2023-03-03T20:24:52.817Z,100223.53
2023-03-03T20:27:46.450Z,100234.84
2023-03-03T20:30:47.761Z,100237.16
2023-03-03T20:33:36.987Z,100230.59
2023-03-03T20:36:25.145Z,100225.47
2023-03-03T20:38:52.844Z,100237.78
2023-03-03T20:41:52.746Z,100240.28
2023-03-03T20:47:43.705Z,100242.25
2023-03-03T20:50:15.739Z,100242.28
2023-03-03T20:52:52.874Z,100236.69
2023-03-03T20:55:25.717Z,100237.53
2023-03-03T20:57:56.057Z,100236.41
2023-03-03T21:00:30.086Z,100243.13
2023-03-03T21:03:14.826Z,100235.88
2023-03-03T21:05:52.798Z,100244.53
2023-03-03T21:08:19.552Z,100242.72
2023-03-03T21:10:51.890Z,100242.88
2023-03-03T21:13:32.672Z,100244.81
2023-03-03T21:16:34.108Z,100241.72
2023-03-03T21:19:11.409Z,100249.28
2023-03-03T21:21:40.238Z,100240.19
2023-03-03T21:24:08.492Z,100240.63
2023-03-03T21:26:52.766Z,100245.66
2023-03-03T21:29:27.112Z,100250.66
2023-03-03T21:32:08.659Z,100253.72
2023-03-03T21:34:36.798Z,100253.69
2023-03-03T21:37:06.644Z,100257.63
2023-03-03T21:39:39.367Z,100255.09
2023-03-03T21:42:22.512Z,100257.31
2023-03-03T21:47:33.508Z,100256.44
2023-03-03T21:50:04.016Z,100248.47
2023-03-03T21:52:34.562Z,100252.44
2023-03-03T21:55:03.839Z,100252.72
2023-03-03T21:57:32.859Z,100258.53
2023-03-03T21:59:59.599Z,100256.31
2023-03-03T22:02:26.340Z,100252.94
2023-03-03T22:04:53.358Z,100261.16
2023-03-03T22:07:20.088Z,100264.94
2023-03-03T22:09:46.754Z,100263.00
2023-03-03T22:12:13.738Z,100263.56
2023-03-03T22:14:40.922Z,100255.41
2023-03-03T22:17:07.958Z,100251.75
2023-03-03T22:19:39.533Z,100256.47
2023-03-03T22:22:09.740Z,100254.22
2023-03-03T22:24:36.477Z,100255.91
2023-03-03T22:27:04.027Z,100261.41
2023-03-03T22:29:30.963Z,100265.78
2023-03-03T22:31:57.683Z,100264.03
2023-03-03T22:34:24.882Z,100256.28
2023-03-03T22:39:17.168Z,100260.75
2023-03-03T22:41:44.271Z,100263.81
2023-03-03T22:44:11.010Z,100267.34
2023-03-03T22:46:37.891Z,100265.16
2023-03-03T22:49:06.051Z,100278.41
2023-03-03T22:51:33.127Z,100265.16
2023-03-03T22:54:00.000Z,100265.41
2023-03-03T22:56:29.776Z,100270.63
2023-03-03T22:58:56.941Z,100263.78
2023-03-03T23:01:24.388Z,100273.13
2023-03-03T23:06:17.506Z,100278.38
2023-03-03T23:08:44.427Z,100267.44
2023-03-03T23:11:11.325Z,100270.34
2023-03-03T23:13:38.117Z,100275.41
2023-03-03T23:16:05.216Z,100273.75
2023-03-03T23:18:32.382Z,100269.53
2023-03-03T23:20:59.114Z,100274.00
2023-03-03T23:23:25.902Z,100273.31
2023-03-03T23:25:52.973Z,100271.16
2023-03-03T23:28:19.727Z,100271.66
2023-03-03T23:30:46.848Z,100272.53
2023-03-03T23:33:13.490Z,100270.88
2023-03-03T23:35:41.414Z,100269.31
2023-03-03T23:38:08.332Z,100271.47
2023-03-03T23:40:35.075Z,100279.53
2023-03-03T23:43:01.765Z,100275.19
2023-03-03T23:45:28.575Z,100272.31
2023-03-03T23:47:55.279Z,100278.00
2023-03-03T23:50:21.962Z,100281.94
2023-03-03T23:52:50.050Z,100278.44
2023-03-03T23:55:16.755Z,100271.38
2023-03-03T23:57:46.895Z,100275.00
